Polar Cloud — WDF5296 — position and weather

sailwx.info

Track history (hours):
 
Tides and Currents Weather Stations Pressure Air Temp Water Temp Dewpoint Dewpoint Depression Visibility Wind Speed Wind Dir Waves Ship Positions

Polar Cloud

Owner: Dunlap Towing Co., LaConner, WA. More information available from US FCC via Universal Licensing System and Coast Guard Vessel Documentation Center.

Last reported at 2017-Oct-04 11:43 UTC. Time now 2017-Nov-18 01:18 UTC.
Position N 48°43' W 122°31'.
Warning: this ship's position is 44 days out of date.

Length 35 m; draft 4.5 m.

Type: Tow > 200 m length. MMSI: 368150000.

Date/timePositionNaut miles runAvg speedWind from/ knotsBaromVisibWave heightAir tempDewpointWater temp
2017-Oct-04 11:43N 48°43' W 122°31'0 0.0
2017-Oct-04 11:31N 48°43' W 122°31'0 0.2
2017-Oct-04 10:59N 48°44' W 122°31'0 0.0
2017-Oct-04 10:30N 48°44' W 122°31'0 0.0
2017-Oct-04 10:00N 48°44' W 122°31'0 0.0
2017-Oct-04 09:30N 48°44' W 122°31'1 1.1
2017-Oct-04 09:00N 48°43' W 122°32'4 8.7
2017-Oct-04 08:31N 48°39' W 122°33'611.3
2017-Oct-04 08:00N 48°35' W 122°40'511.1
2017-Oct-04 07:30N 48°30' W 122°43'611.0
2017-Oct-04 06:58N 48°24' W 122°44'2210.6
2017-Oct-04 04:55N 48°03' W 122°38'613.5
2017-Oct-04 04:28N 47°58' W 122°33'612.6
2017-Oct-04 04:01N 47°53' W 122°27'510.1
2017-Oct-04 03:31N 47°56' W 122°21'510.9
2017-Oct-04 03:00N 47°59' W 122°14'0 0.9
2017-Oct-04 02:31N 47°59' W 122°13'0 0.0
2017-Oct-04 02:01N 47°59' W 122°13'  
2017-Sep-25 01:49N 47°51' W 122°23'413.6
2017-Sep-25 01:30N 47°47' W 122°25'713.5
2017-Sep-25 01:00N 47°40' W 122°26'510.4
2017-Sep-25 00:30N 47°36' W 122°22'3 5.3
2017-Sep-25 00:00N 47°37' W 122°25'4 8.8
2017-Sep-24 23:30N 47°41' W 122°28'5 9.9
2017-Sep-24 23:00N 47°46' W 122°27'5 9.9
2017-Sep-24 22:30N 47°51' W 122°29'5 9.2
2017-Sep-24 22:00N 47°56' W 122°32'5 8.8
2017-Sep-24 21:28N 47°59' W 122°37'20 7.5
2017-Sep-24 18:49N 48°17' W 122°48'4 9.8
2017-Sep-24 18:24N 48°21' W 122°46'5 9.9
2017-Sep-24 17:52N 48°27' W 122°45'3 9.8
2017-Sep-24 17:30N 48°30' W 122°44'5 9.2
2017-Sep-24 17:00N 48°35' W 122°45'4 8.6
2017-Sep-24 16:30N 48°39' W 122°44'4 8.5
2017-Sep-24 15:59N 48°43' W 122°46'7 8.9
2017-Sep-24 15:14N 48°47' W 122°54'3 9.5
2017-Sep-24 14:53N 48°49' W 122°58'4 9.8
2017-Sep-24 14:30N 48°51' W 123°03'5 9.7
2017-Sep-24 14:00N 48°54' W 123°09'5 9.4
2017-Sep-24 13:30N 48°57' W 123°14'5 9.3
2017-Sep-24 13:00N 49°00' W 123°19'5 9.6
2017-Sep-24 12:30N 49°03' W 123°24'5 9.2
2017-Sep-24 12:00N 49°07' W 123°29'  
Track history (hours):
 
Tides and Currents Weather Stations Pressure Air Temp Water Temp Dewpoint Dewpoint Depression Visibility Wind Speed Wind Dir Waves Ship Positions

Polar Cloud

Owner: Dunlap Towing Co., LaConner, WA. More information available from US FCC via Universal Licensing System and Coast Guard Vessel Documentation Center.

Last reported at 2017-Oct-04 11:43 UTC. Time now 2017-Nov-18 01:18 UTC.
Position N 48°43' W 122°31'.
Warning: this ship's position is 44 days out of date.

Length 35 m; draft 4.5 m.

Type: Tow > 200 m length. MMSI: 368150000.

Date/timePositionNaut miles runAvg speedWind from/ knotsBaromVisibWave heightAir tempDewpointWater temp
2017-Oct-04 11:43N 48°43' W 122°31'0 0.0
2017-Oct-04 11:31N 48°43' W 122°31'0 0.2
2017-Oct-04 10:59N 48°44' W 122°31'0 0.0
2017-Oct-04 10:30N 48°44' W 122°31'0 0.0
2017-Oct-04 10:00N 48°44' W 122°31'0 0.0
2017-Oct-04 09:30N 48°44' W 122°31'1 1.1
2017-Oct-04 09:00N 48°43' W 122°32'4 8.7
2017-Oct-04 08:31N 48°39' W 122°33'611.3
2017-Oct-04 08:00N 48°35' W 122°40'511.1
2017-Oct-04 07:30N 48°30' W 122°43'611.0
2017-Oct-04 06:58N 48°24' W 122°44'2210.6
2017-Oct-04 04:55N 48°03' W 122°38'613.5
2017-Oct-04 04:28N 47°58' W 122°33'612.6
2017-Oct-04 04:01N 47°53' W 122°27'510.1
2017-Oct-04 03:31N 47°56' W 122°21'510.9
2017-Oct-04 03:00N 47°59' W 122°14'0 0.9
2017-Oct-04 02:31N 47°59' W 122°13'0 0.0
2017-Oct-04 02:01N 47°59' W 122°13'  
2017-Sep-25 01:49N 47°51' W 122°23'413.6
2017-Sep-25 01:30N 47°47' W 122°25'713.5
2017-Sep-25 01:00N 47°40' W 122°26'510.4
2017-Sep-25 00:30N 47°36' W 122°22'3 5.3
2017-Sep-25 00:00N 47°37' W 122°25'4 8.8
2017-Sep-24 23:30N 47°41' W 122°28'5 9.9
2017-Sep-24 23:00N 47°46' W 122°27'5 9.9
2017-Sep-24 22:30N 47°51' W 122°29'5 9.2
2017-Sep-24 22:00N 47°56' W 122°32'5 8.8
2017-Sep-24 21:28N 47°59' W 122°37'20 7.5
2017-Sep-24 18:49N 48°17' W 122°48'4 9.8
2017-Sep-24 18:24N 48°21' W 122°46'5 9.9
2017-Sep-24 17:52N 48°27' W 122°45'3 9.8
2017-Sep-24 17:30N 48°30' W 122°44'5 9.2
2017-Sep-24 17:00N 48°35' W 122°45'4 8.6
2017-Sep-24 16:30N 48°39' W 122°44'4 8.5
2017-Sep-24 15:59N 48°43' W 122°46'7 8.9
2017-Sep-24 15:14N 48°47' W 122°54'3 9.5
2017-Sep-24 14:53N 48°49' W 122°58'4 9.8
2017-Sep-24 14:30N 48°51' W 123°03'5 9.7
2017-Sep-24 14:00N 48°54' W 123°09'5 9.4
2017-Sep-24 13:30N 48°57' W 123°14'5 9.3
2017-Sep-24 13:00N 49°00' W 123°19'5 9.6
2017-Sep-24 12:30N 49°03' W 123°24'5 9.2
2017-Sep-24 12:00N 49°07' W 123°29'  

Dump ship's entire track history